sensor_id;sensor_type;location;lat;lon;timestamp;P1;durP1;ratioP1;P2;durP2;ratioP2
15120;SDS011;7661;48.904;9.414;2022-07-11T00:00:59;6.20;;;1.90;;
15120;SDS011;7661;48.904;9.414;2022-07-11T00:03:28;3.60;;;1.53;;
15120;SDS011;7661;48.904;9.414;2022-07-11T00:05:55;3.50;;;1.80;;
15120;SDS011;7661;48.904;9.414;2022-07-11T00:08:21;6.17;;;1.67;;
15120;SDS011;7661;48.904;9.414;2022-07-11T00:10:48;4.43;;;1.40;;
15120;SDS011;7661;48.904;9.414;2022-07-11T00:13:16;4.10;;;1.20;;
15120;SDS011;7661;48.904;9.414;2022-07-11T00:15:43;8.63;;;2.30;;
15120;SDS011;7661;48.904;9.414;2022-07-11T00:18:10;5.10;;;1.90;;
15120;SDS011;7661;48.904;9.414;2022-07-11T00:20:38;7.23;;;1.90;;
15120;SDS011;7661;48.904;9.414;2022-07-11T00:23:05;4.63;;;1.67;;
15120;SDS011;7661;48.904;9.414;2022-07-11T00:25:31;4.40;;;1.77;;
15120;SDS011;7661;48.904;9.414;2022-07-11T00:27:58;7.07;;;1.73;;
15120;SDS011;7661;48.904;9.414;2022-07-11T00:30:25;5.50;;;1.80;;
15120;SDS011;7661;48.904;9.414;2022-07-11T00:32:52;5.17;;;1.60;;
15120;SDS011;7661;48.904;9.414;2022-07-11T00:35:19;4.80;;;1.50;;
15120;SDS011;7661;48.904;9.414;2022-07-11T00:37:47;7.10;;;1.73;;
15120;SDS011;7661;48.904;9.414;2022-07-11T00:40:14;3.40;;;1.60;;
15120;SDS011;7661;48.904;9.414;2022-07-11T00:42:41;5.43;;;1.50;;
15120;SDS011;7661;48.904;9.414;2022-07-11T00:45:08;3.20;;;1.60;;
15120;SDS011;7661;48.904;9.414;2022-07-11T00:47:35;7.50;;;1.90;;
15120;SDS011;7661;48.904;9.414;2022-07-11T00:50:02;6.90;;;1.60;;
15120;SDS011;7661;48.904;9.414;2022-07-11T00:52:30;2.90;;;1.70;;
15120;SDS011;7661;48.904;9.414;2022-07-11T00:54:58;6.13;;;2.10;;
15120;SDS011;7661;48.904;9.414;2022-07-11T00:57:25;4.20;;;1.50;;
15120;SDS011;7661;48.904;9.414;2022-07-11T00:59:52;4.43;;;1.50;;
15120;SDS011;7661;48.904;9.414;2022-07-11T01:02:19;4.60;;;1.43;;
15120;SDS011;7661;48.904;9.414;2022-07-11T01:04:46;5.10;;;1.53;;
15120;SDS011;7661;48.904;9.414;2022-07-11T01:07:13;5.80;;;1.50;;
15120;SDS011;7661;48.904;9.414;2022-07-11T01:09:40;4.67;;;1.77;;
15120;SDS011;7661;48.904;9.414;2022-07-11T01:12:08;3.83;;;1.60;;
15120;SDS011;7661;48.904;9.414;2022-07-11T01:14:35;9.60;;;1.90;;
15120;SDS011;7661;48.904;9.414;2022-07-11T01:17:03;6.30;;;1.77;;
15120;SDS011;7661;48.904;9.414;2022-07-11T01:19:30;7.00;;;2.10;;
15120;SDS011;7661;48.904;9.414;2022-07-11T01:21:58;7.33;;;1.50;;
15120;SDS011;7661;48.904;9.414;2022-07-11T01:24:28;6.93;;;2.10;;
15120;SDS011;7661;48.904;9.414;2022-07-11T01:26:55;4.90;;;1.80;;
15120;SDS011;7661;48.904;9.414;2022-07-11T01:29:22;3.60;;;1.60;;
15120;SDS011;7661;48.904;9.414;2022-07-11T01:31:50;5.60;;;1.80;;
15120;SDS011;7661;48.904;9.414;2022-07-11T01:34:16;5.53;;;1.60;;
15120;SDS011;7661;48.904;9.414;2022-07-11T01:36:43;5.03;;;1.87;;
15120;SDS011;7661;48.904;9.414;2022-07-11T01:39:10;5.40;;;1.87;;
15120;SDS011;7661;48.904;9.414;2022-07-11T01:41:38;4.40;;;1.43;;
15120;SDS011;7661;48.904;9.414;2022-07-11T01:44:05;3.43;;;1.87;;
15120;SDS011;7661;48.904;9.414;2022-07-11T01:46:32;6.23;;;1.90;;
15120;SDS011;7661;48.904;9.414;2022-07-11T01:48:59;8.23;;;2.00;;
15120;SDS011;7661;48.904;9.414;2022-07-11T01:51:27;5.90;;;1.70;;
15120;SDS011;7661;48.904;9.414;2022-07-11T01:53:54;5.63;;;1.60;;
15120;SDS011;7661;48.904;9.414;2022-07-11T01:56:21;8.30;;;1.93;;
15120;SDS011;7661;48.904;9.414;2022-07-11T01:58:49;3.07;;;1.50;;
15120;SDS011;7661;48.904;9.414;2022-07-11T02:01:16;8.00;;;2.00;;
15120;SDS011;7661;48.904;9.414;2022-07-11T02:03:43;4.00;;;1.80;;
15120;SDS011;7661;48.904;9.414;2022-07-11T02:06:10;9.60;;;1.90;;
15120;SDS011;7661;48.904;9.414;2022-07-11T02:08:37;11.17;;;1.70;;
15120;SDS011;7661;48.904;9.414;2022-07-11T02:11:04;5.70;;;2.23;;
15120;SDS011;7661;48.904;9.414;2022-07-11T02:13:31;3.93;;;1.70;;
15120;SDS011;7661;48.904;9.414;2022-07-11T02:15:59;6.80;;;2.50;;
15120;SDS011;7661;48.904;9.414;2022-07-11T02:18:27;4.93;;;1.93;;
15120;SDS011;7661;48.904;9.414;2022-07-11T02:20:54;5.93;;;2.13;;
15120;SDS011;7661;48.904;9.414;2022-07-11T02:23:21;5.67;;;2.00;;
15120;SDS011;7661;48.904;9.414;2022-07-11T02:25:48;9.43;;;1.90;;
15120;SDS011;7661;48.904;9.414;2022-07-11T02:28:15;4.90;;;1.50;;
15120;SDS011;7661;48.904;9.414;2022-07-11T02:30:42;4.43;;;1.80;;
15120;SDS011;7661;48.904;9.414;2022-07-11T02:33:12;6.37;;;1.60;;
15120;SDS011;7661;48.904;9.414;2022-07-11T02:35:40;10.80;;;2.53;;
15120;SDS011;7661;48.904;9.414;2022-07-11T02:38:07;3.80;;;1.97;;
15120;SDS011;7661;48.904;9.414;2022-07-11T02:40:34;6.27;;;1.90;;
15120;SDS011;7661;48.904;9.414;2022-07-11T02:43:02;3.20;;;1.70;;
15120;SDS011;7661;48.904;9.414;2022-07-11T02:45:29;5.50;;;1.70;;
15120;SDS011;7661;48.904;9.414;2022-07-11T02:47:56;7.03;;;1.83;;
15120;SDS011;7661;48.904;9.414;2022-07-11T02:50:24;5.87;;;1.83;;
15120;SDS011;7661;48.904;9.414;2022-07-11T02:52:51;3.50;;;1.73;;
15120;SDS011;7661;48.904;9.414;2022-07-11T02:55:18;4.10;;;1.60;;
15120;SDS011;7661;48.904;9.414;2022-07-11T02:57:45;7.27;;;1.90;;
15120;SDS011;7661;48.904;9.414;2022-07-11T03:00:12;4.70;;;2.10;;
15120;SDS011;7661;48.904;9.414;2022-07-11T03:02:41;3.13;;;1.60;;
15120;SDS011;7661;48.904;9.414;2022-07-11T03:05:09;3.57;;;1.93;;
15120;SDS011;7661;48.904;9.414;2022-07-11T03:07:39;4.27;;;2.20;;
15120;SDS011;7661;48.904;9.414;2022-07-11T03:10:06;4.97;;;1.80;;
15120;SDS011;7661;48.904;9.414;2022-07-11T03:12:33;5.50;;;1.70;;
15120;SDS011;7661;48.904;9.414;2022-07-11T03:15:00;5.33;;;2.03;;
15120;SDS011;7661;48.904;9.414;2022-07-11T03:17:27;5.10;;;2.10;;
15120;SDS011;7661;48.904;9.414;2022-07-11T03:19:54;8.97;;;2.00;;
15120;SDS011;7661;48.904;9.414;2022-07-11T03:22:21;3.93;;;2.00;;
15120;SDS011;7661;48.904;9.414;2022-07-11T03:24:50;7.03;;;1.97;;
15120;SDS011;7661;48.904;9.414;2022-07-11T03:27:17;4.03;;;1.90;;
15120;SDS011;7661;48.904;9.414;2022-07-11T03:29:44;4.50;;;1.87;;
15120;SDS011;7661;48.904;9.414;2022-07-11T03:32:11;4.97;;;1.80;;
15120;SDS011;7661;48.904;9.414;2022-07-11T03:34:38;4.87;;;2.00;;
15120;SDS011;7661;48.904;9.414;2022-07-11T03:37:05;10.20;;;1.90;;
15120;SDS011;7661;48.904;9.414;2022-07-11T03:39:32;7.20;;;1.90;;
15120;SDS011;7661;48.904;9.414;2022-07-11T03:42:00;4.70;;;2.03;;
15120;SDS011;7661;48.904;9.414;2022-07-11T03:44:27;5.40;;;2.30;;
15120;SDS011;7661;48.904;9.414;2022-07-11T03:46:54;8.70;;;2.30;;
15120;SDS011;7661;48.904;9.414;2022-07-11T03:49:21;2.90;;;1.73;;
15120;SDS011;7661;48.904;9.414;2022-07-11T03:51:47;8.50;;;2.03;;
15120;SDS011;7661;48.904;9.414;2022-07-11T03:54:14;3.90;;;2.33;;
15120;SDS011;7661;48.904;9.414;2022-07-11T03:56:41;4.30;;;2.17;;
15120;SDS011;7661;48.904;9.414;2022-07-11T03:59:09;4.50;;;2.07;;
15120;SDS011;7661;48.904;9.414;2022-07-11T04:01:36;6.50;;;2.23;;
15120;SDS011;7661;48.904;9.414;2022-07-11T04:04:03;4.87;;;2.10;;
15120;SDS011;7661;48.904;9.414;2022-07-11T04:06:33;4.93;;;2.03;;
15120;SDS011;7661;48.904;9.414;2022-07-11T04:09:00;6.60;;;2.40;;
15120;SDS011;7661;48.904;9.414;2022-07-11T04:11:27;3.90;;;1.80;;
15120;SDS011;7661;48.904;9.414;2022-07-11T04:13:54;4.37;;;2.07;;
15120;SDS011;7661;48.904;9.414;2022-07-11T04:16:22;6.87;;;2.33;;
15120;SDS011;7661;48.904;9.414;2022-07-11T04:18:49;4.83;;;2.07;;
15120;SDS011;7661;48.904;9.414;2022-07-11T04:21:15;3.70;;;2.10;;
15120;SDS011;7661;48.904;9.414;2022-07-11T04:23:43;5.77;;;2.50;;
15120;SDS011;7661;48.904;9.414;2022-07-11T04:26:10;7.50;;;2.50;;
15120;SDS011;7661;48.904;9.414;2022-07-11T04:28:37;4.73;;;2.10;;
15120;SDS011;7661;48.904;9.414;2022-07-11T04:31:04;4.23;;;2.00;;
15120;SDS011;7661;48.904;9.414;2022-07-11T04:33:32;4.83;;;2.50;;
15120;SDS011;7661;48.904;9.414;2022-07-11T04:35:59;5.87;;;2.27;;
15120;SDS011;7661;48.904;9.414;2022-07-11T04:38:25;5.67;;;2.20;;
15120;SDS011;7661;48.904;9.414;2022-07-11T04:40:52;6.37;;;2.40;;
15120;SDS011;7661;48.904;9.414;2022-07-11T04:43:19;4.07;;;2.10;;
15120;SDS011;7661;48.904;9.414;2022-07-11T04:45:46;8.60;;;2.60;;
15120;SDS011;7661;48.904;9.414;2022-07-11T04:48:13;4.50;;;2.33;;
15120;SDS011;7661;48.904;9.414;2022-07-11T04:50:43;5.60;;;2.50;;
15120;SDS011;7661;48.904;9.414;2022-07-11T04:53:10;6.20;;;2.70;;
15120;SDS011;7661;48.904;9.414;2022-07-11T04:55:38;6.17;;;2.57;;
15120;SDS011;7661;48.904;9.414;2022-07-11T04:58:06;6.50;;;2.80;;
15120;SDS011;7661;48.904;9.414;2022-07-11T05:00:33;4.13;;;2.17;;
15120;SDS011;7661;48.904;9.414;2022-07-11T05:03:00;5.60;;;2.27;;
15120;SDS011;7661;48.904;9.414;2022-07-11T05:05:27;9.03;;;2.57;;
15120;SDS011;7661;48.904;9.414;2022-07-11T05:07:55;3.83;;;2.30;;
15120;SDS011;7661;48.904;9.414;2022-07-11T05:10:22;8.67;;;2.63;;
15120;SDS011;7661;48.904;9.414;2022-07-11T05:12:49;4.80;;;2.63;;
15120;SDS011;7661;48.904;9.414;2022-07-11T05:15:16;6.90;;;2.83;;
15120;SDS011;7661;48.904;9.414;2022-07-11T05:17:43;8.57;;;2.80;;
15120;SDS011;7661;48.904;9.414;2022-07-11T05:20:10;7.90;;;2.60;;
15120;SDS011;7661;48.904;9.414;2022-07-11T05:22:37;6.83;;;2.67;;
15120;SDS011;7661;48.904;9.414;2022-07-11T05:25:06;5.53;;;2.50;;
15120;SDS011;7661;48.904;9.414;2022-07-11T05:27:33;5.63;;;2.53;;
15120;SDS011;7661;48.904;9.414;2022-07-11T05:30:00;7.10;;;2.60;;
15120;SDS011;7661;48.904;9.414;2022-07-11T05:32:27;4.80;;;2.80;;
15120;SDS011;7661;48.904;9.414;2022-07-11T05:34:54;6.30;;;3.00;;
15120;SDS011;7661;48.904;9.414;2022-07-11T05:37:22;4.43;;;2.70;;
15120;SDS011;7661;48.904;9.414;2022-07-11T05:39:49;7.47;;;3.17;;
15120;SDS011;7661;48.904;9.414;2022-07-11T05:42:17;11.93;;;2.70;;
15120;SDS011;7661;48.904;9.414;2022-07-11T05:44:44;5.50;;;2.50;;
15120;SDS011;7661;48.904;9.414;2022-07-11T05:47:12;5.33;;;2.70;;
15120;SDS011;7661;48.904;9.414;2022-07-11T05:49:40;7.37;;;2.30;;
15120;SDS011;7661;48.904;9.414;2022-07-11T05:52:08;12.43;;;3.43;;
15120;SDS011;7661;48.904;9.414;2022-07-11T05:54:35;6.40;;;2.53;;
15120;SDS011;7661;48.904;9.414;2022-07-11T05:57:02;5.13;;;2.83;;
15120;SDS011;7661;48.904;9.414;2022-07-11T05:59:31;4.70;;;2.60;;
15120;SDS011;7661;48.904;9.414;2022-07-11T06:02:01;5.77;;;2.83;;
15120;SDS011;7661;48.904;9.414;2022-07-11T06:04:29;11.90;;;3.13;;
15120;SDS011;7661;48.904;9.414;2022-07-11T06:06:55;5.57;;;3.17;;
15120;SDS011;7661;48.904;9.414;2022-07-11T06:09:22;4.80;;;2.90;;
15120;SDS011;7661;48.904;9.414;2022-07-11T06:11:48;6.57;;;3.57;;
15120;SDS011;7661;48.904;9.414;2022-07-11T06:14:15;5.90;;;3.57;;
15120;SDS011;7661;48.904;9.414;2022-07-11T06:16:43;6.30;;;3.07;;
15120;SDS011;7661;48.904;9.414;2022-07-11T06:19:10;4.97;;;2.80;;
15120;SDS011;7661;48.904;9.414;2022-07-11T06:21:37;4.17;;;2.73;;
15120;SDS011;7661;48.904;9.414;2022-07-11T06:24:04;6.63;;;2.87;;
15120;SDS011;7661;48.904;9.414;2022-07-11T06:26:31;4.03;;;2.80;;
15120;SDS011;7661;48.904;9.414;2022-07-11T06:28:58;6.00;;;3.10;;
15120;SDS011;7661;48.904;9.414;2022-07-11T06:31:25;4.90;;;3.20;;
15120;SDS011;7661;48.904;9.414;2022-07-11T06:33:53;6.60;;;2.60;;
15120;SDS011;7661;48.904;9.414;2022-07-11T06:36:21;9.50;;;3.13;;
15120;SDS011;7661;48.904;9.414;2022-07-11T06:38:48;6.10;;;3.17;;
15120;SDS011;7661;48.904;9.414;2022-07-11T06:41:16;5.63;;;3.03;;
15120;SDS011;7661;48.904;9.414;2022-07-11T06:43:43;5.50;;;3.40;;
15120;SDS011;7661;48.904;9.414;2022-07-11T06:46:12;5.90;;;3.33;;
15120;SDS011;7661;48.904;9.414;2022-07-11T06:48:40;5.67;;;3.10;;
15120;SDS011;7661;48.904;9.414;2022-07-11T06:51:08;6.73;;;3.20;;
15120;SDS011;7661;48.904;9.414;2022-07-11T06:53:35;5.43;;;2.50;;
15120;SDS011;7661;48.904;9.414;2022-07-11T06:56:02;5.50;;;2.77;;
15120;SDS011;7661;48.904;9.414;2022-07-11T06:58:29;6.57;;;2.80;;
15120;SDS011;7661;48.904;9.414;2022-07-11T07:00:58;4.80;;;2.20;;
15120;SDS011;7661;48.904;9.414;2022-07-11T07:03:26;5.23;;;3.00;;
15120;SDS011;7661;48.904;9.414;2022-07-11T07:05:54;5.83;;;2.70;;
15120;SDS011;7661;48.904;9.414;2022-07-11T07:08:26;5.00;;;2.67;;
15120;SDS011;7661;48.904;9.414;2022-07-11T07:10:54;3.93;;;2.47;;
15120;SDS011;7661;48.904;9.414;2022-07-11T07:13:22;4.27;;;2.03;;
15120;SDS011;7661;48.904;9.414;2022-07-11T07:15:50;4.20;;;2.53;;
15120;SDS011;7661;48.904;9.414;2022-07-11T07:18:17;5.77;;;2.87;;
15120;SDS011;7661;48.904;9.414;2022-07-11T07:20:45;5.93;;;2.20;;
15120;SDS011;7661;48.904;9.414;2022-07-11T07:23:13;5.80;;;2.37;;
15120;SDS011;7661;48.904;9.414;2022-07-11T07:25:41;4.23;;;2.27;;
15120;SDS011;7661;48.904;9.414;2022-07-11T07:28:08;5.10;;;2.10;;
15120;SDS011;7661;48.904;9.414;2022-07-11T07:30:35;4.67;;;2.10;;
15120;SDS011;7661;48.904;9.414;2022-07-11T07:33:02;3.00;;;1.80;;
15120;SDS011;7661;48.904;9.414;2022-07-11T07:35:30;4.30;;;1.63;;
15120;SDS011;7661;48.904;9.414;2022-07-11T07:37:57;2.90;;;1.90;;
15120;SDS011;7661;48.904;9.414;2022-07-11T07:40:25;8.00;;;2.37;;
15120;SDS011;7661;48.904;9.414;2022-07-11T07:42:53;3.70;;;2.40;;
15120;SDS011;7661;48.904;9.414;2022-07-11T07:45:20;4.13;;;2.10;;
15120;SDS011;7661;48.904;9.414;2022-07-11T07:47:47;5.83;;;3.00;;
15120;SDS011;7661;48.904;9.414;2022-07-11T07:50:15;3.97;;;1.97;;
15120;SDS011;7661;48.904;9.414;2022-07-11T07:52:42;5.20;;;2.50;;
15120;SDS011;7661;48.904;9.414;2022-07-11T07:55:09;4.23;;;2.03;;
15120;SDS011;7661;48.904;9.414;2022-07-11T07:57:35;3.00;;;1.97;;
15120;SDS011;7661;48.904;9.414;2022-07-11T08:00:04;3.63;;;2.03;;
15120;SDS011;7661;48.904;9.414;2022-07-11T08:02:50;3.80;;;1.90;;
15120;SDS011;7661;48.904;9.414;2022-07-11T08:05:17;3.43;;;2.00;;
15120;SDS011;7661;48.904;9.414;2022-07-11T08:07:44;2.90;;;2.00;;
15120;SDS011;7661;48.904;9.414;2022-07-11T08:10:11;3.87;;;1.80;;
15120;SDS011;7661;48.904;9.414;2022-07-11T08:12:39;3.33;;;2.20;;
15120;SDS011;7661;48.904;9.414;2022-07-11T08:15:08;2.70;;;1.70;;
15120;SDS011;7661;48.904;9.414;2022-07-11T08:17:35;4.67;;;2.00;;
15120;SDS011;7661;48.904;9.414;2022-07-11T08:20:03;4.80;;;1.77;;
15120;SDS011;7661;48.904;9.414;2022-07-11T08:22:30;2.60;;;1.33;;
15120;SDS011;7661;48.904;9.414;2022-07-11T08:24:57;2.20;;;1.30;;
15120;SDS011;7661;48.904;9.414;2022-07-11T08:27:24;3.47;;;1.50;;
15120;SDS011;7661;48.904;9.414;2022-07-11T08:29:52;4.80;;;1.50;;
15120;SDS011;7661;48.904;9.414;2022-07-11T08:32:20;2.00;;;1.30;;
15120;SDS011;7661;48.904;9.414;2022-07-11T08:34:47;2.43;;;1.40;;
15120;SDS011;7661;48.904;9.414;2022-07-11T08:37:13;3.53;;;1.60;;
15120;SDS011;7661;48.904;9.414;2022-07-11T08:39:41;2.30;;;1.20;;
15120;SDS011;7661;48.904;9.414;2022-07-11T08:42:08;4.23;;;1.43;;
15120;SDS011;7661;48.904;9.414;2022-07-11T08:44:35;5.23;;;2.10;;
15120;SDS011;7661;48.904;9.414;2022-07-11T08:47:03;2.67;;;1.57;;
15120;SDS011;7661;48.904;9.414;2022-07-11T08:49:31;4.07;;;1.80;;
15120;SDS011;7661;48.904;9.414;2022-07-11T08:51:58;3.93;;;2.10;;
15120;SDS011;7661;48.904;9.414;2022-07-11T08:54:26;3.30;;;1.50;;
15120;SDS011;7661;48.904;9.414;2022-07-11T08:56:53;3.37;;;1.60;;
15120;SDS011;7661;48.904;9.414;2022-07-11T08:59:21;2.00;;;1.20;;
15120;SDS011;7661;48.904;9.414;2022-07-11T09:01:49;3.93;;;1.70;;
15120;SDS011;7661;48.904;9.414;2022-07-11T09:04:17;4.50;;;1.63;;
15120;SDS011;7661;48.904;9.414;2022-07-11T09:06:46;4.03;;;1.60;;
15120;SDS011;7661;48.904;9.414;2022-07-11T09:09:13;4.83;;;1.50;;
15120;SDS011;7661;48.904;9.414;2022-07-11T09:11:50;4.00;;;1.80;;
15120;SDS011;7661;48.904;9.414;2022-07-11T09:14:21;8.43;;;1.73;;
15120;SDS011;7661;48.904;9.414;2022-07-11T09:16:53;2.37;;;1.50;;
15120;SDS011;7661;48.904;9.414;2022-07-11T09:19:21;4.70;;;1.93;;
15120;SDS011;7661;48.904;9.414;2022-07-11T09:21:57;15.23;;;1.77;;
15120;SDS011;7661;48.904;9.414;2022-07-11T09:24:53;3.17;;;1.47;;
15120;SDS011;7661;48.904;9.414;2022-07-11T09:27:42;2.40;;;1.40;;
15120;SDS011;7661;48.904;9.414;2022-07-11T09:33:00;3.73;;;1.70;;
15120;SDS011;7661;48.904;9.414;2022-07-11T09:35:29;3.23;;;1.80;;
15120;SDS011;7661;48.904;9.414;2022-07-11T09:37:59;4.43;;;1.50;;
15120;SDS011;7661;48.904;9.414;2022-07-11T09:40:29;5.07;;;1.73;;
15120;SDS011;7661;48.904;9.414;2022-07-11T09:42:56;3.30;;;1.70;;
15120;SDS011;7661;48.904;9.414;2022-07-11T09:45:24;6.40;;;2.50;;
15120;SDS011;7661;48.904;9.414;2022-07-11T09:47:53;5.03;;;1.70;;
15120;SDS011;7661;48.904;9.414;2022-07-11T09:50:21;4.30;;;1.93;;
15120;SDS011;7661;48.904;9.414;2022-07-11T09:53:00;4.30;;;1.60;;
15120;SDS011;7661;48.904;9.414;2022-07-11T09:55:29;11.13;;;4.03;;
15120;SDS011;7661;48.904;9.414;2022-07-11T09:57:56;7.20;;;2.00;;
15120;SDS011;7661;48.904;9.414;2022-07-11T10:00:23;2.27;;;1.40;;
15120;SDS011;7661;48.904;9.414;2022-07-11T10:02:50;6.40;;;1.67;;
15120;SDS011;7661;48.904;9.414;2022-07-11T10:05:18;8.33;;;1.77;;
15120;SDS011;7661;48.904;9.414;2022-07-11T10:07:46;3.10;;;1.50;;
15120;SDS011;7661;48.904;9.414;2022-07-11T10:10:14;5.10;;;1.90;;
15120;SDS011;7661;48.904;9.414;2022-07-11T10:12:41;2.77;;;1.50;;
15120;SDS011;7661;48.904;9.414;2022-07-11T10:15:10;1.80;;;1.10;;
15120;SDS011;7661;48.904;9.414;2022-07-11T10:17:40;5.60;;;1.70;;
15120;SDS011;7661;48.904;9.414;2022-07-11T10:20:15;5.23;;;1.93;;
15120;SDS011;7661;48.904;9.414;2022-07-11T10:22:49;3.50;;;1.40;;
15120;SDS011;7661;48.904;9.414;2022-07-11T10:25:25;4.23;;;1.50;;
15120;SDS011;7661;48.904;9.414;2022-07-11T10:28:00;3.77;;;1.70;;
15120;SDS011;7661;48.904;9.414;2022-07-11T10:30:40;5.07;;;2.00;;
15120;SDS011;7661;48.904;9.414;2022-07-11T10:33:09;3.10;;;1.77;;
15120;SDS011;7661;48.904;9.414;2022-07-11T10:35:37;4.40;;;1.87;;
15120;SDS011;7661;48.904;9.414;2022-07-11T10:38:06;9.70;;;1.80;;
15120;SDS011;7661;48.904;9.414;2022-07-11T10:40:44;4.40;;;1.30;;
15120;SDS011;7661;48.904;9.414;2022-07-11T10:43:13;14.83;;;1.40;;
15120;SDS011;7661;48.904;9.414;2022-07-11T10:45:56;3.73;;;1.30;;
15120;SDS011;7661;48.904;9.414;2022-07-11T10:48:25;7.53;;;1.30;;
15120;SDS011;7661;48.904;9.414;2022-07-11T10:53:38;3.60;;;1.20;;
15120;SDS011;7661;48.904;9.414;2022-07-11T10:56:14;6.60;;;1.63;;
15120;SDS011;7661;48.904;9.414;2022-07-11T10:59:09;3.40;;;1.60;;
15120;SDS011;7661;48.904;9.414;2022-07-11T11:04:45;3.57;;;1.27;;
15120;SDS011;7661;48.904;9.414;2022-07-11T11:07:28;3.10;;;1.37;;
15120;SDS011;7661;48.904;9.414;2022-07-11T11:09:56;3.20;;;1.50;;
15120;SDS011;7661;48.904;9.414;2022-07-11T11:15:32;2.70;;;1.30;;
15120;SDS011;7661;48.904;9.414;2022-07-11T11:24:03;3.03;;;1.50;;
15120;SDS011;7661;48.904;9.414;2022-07-11T11:29:27;2.43;;;1.20;;
15120;SDS011;7661;48.904;9.414;2022-07-11T11:31:57;4.03;;;1.53;;
15120;SDS011;7661;48.904;9.414;2022-07-11T11:34:25;4.17;;;1.57;;
15120;SDS011;7661;48.904;9.414;2022-07-11T11:36:56;2.63;;;1.20;;
15120;SDS011;7661;48.904;9.414;2022-07-11T11:39:25;3.40;;;1.43;;
15120;SDS011;7661;48.904;9.414;2022-07-11T11:41:53;2.30;;;1.20;;
15120;SDS011;7661;48.904;9.414;2022-07-11T11:44:26;5.77;;;1.33;;
15120;SDS011;7661;48.904;9.414;2022-07-11T11:49:22;4.60;;;1.50;;
15120;SDS011;7661;48.904;9.414;2022-07-11T11:51:49;7.70;;;1.77;;
15120;SDS011;7661;48.904;9.414;2022-07-11T11:54:22;3.60;;;1.40;;
15120;SDS011;7661;48.904;9.414;2022-07-11T11:56:51;2.97;;;1.73;;
15120;SDS011;7661;48.904;9.414;2022-07-11T11:59:18;2.60;;;1.47;;
15120;SDS011;7661;48.904;9.414;2022-07-11T12:01:55;2.83;;;1.50;;
15120;SDS011;7661;48.904;9.414;2022-07-11T12:04:23;2.80;;;1.57;;
15120;SDS011;7661;48.904;9.414;2022-07-11T12:06:50;5.60;;;1.80;;
15120;SDS011;7661;48.904;9.414;2022-07-11T12:09:18;5.80;;;1.50;;
15120;SDS011;7661;48.904;9.414;2022-07-11T12:11:48;10.57;;;1.67;;
15120;SDS011;7661;48.904;9.414;2022-07-11T12:14:36;3.60;;;1.83;;
15120;SDS011;7661;48.904;9.414;2022-07-11T12:17:03;2.67;;;1.40;;
15120;SDS011;7661;48.904;9.414;2022-07-11T12:19:33;2.67;;;1.60;;
15120;SDS011;7661;48.904;9.414;2022-07-11T12:22:03;3.10;;;1.90;;
15120;SDS011;7661;48.904;9.414;2022-07-11T12:24:31;2.83;;;1.60;;
15120;SDS011;7661;48.904;9.414;2022-07-11T12:26:58;3.23;;;1.53;;
15120;SDS011;7661;48.904;9.414;2022-07-11T12:29:26;4.20;;;1.77;;
15120;SDS011;7661;48.904;9.414;2022-07-11T12:31:54;3.20;;;2.20;;
15120;SDS011;7661;48.904;9.414;2022-07-11T12:34:23;2.60;;;1.70;;
15120;SDS011;7661;48.904;9.414;2022-07-11T12:37:02;3.93;;;1.90;;
15120;SDS011;7661;48.904;9.414;2022-07-11T12:39:31;5.70;;;1.80;;
15120;SDS011;7661;48.904;9.414;2022-07-11T12:42:00;4.03;;;1.60;;
15120;SDS011;7661;48.904;9.414;2022-07-11T12:44:53;2.93;;;2.10;;
15120;SDS011;7661;48.904;9.414;2022-07-11T12:47:24;6.77;;;1.50;;
15120;SDS011;7661;48.904;9.414;2022-07-11T12:49:52;5.37;;;2.20;;
15120;SDS011;7661;48.904;9.414;2022-07-11T12:52:21;4.53;;;2.00;;
15120;SDS011;7661;48.904;9.414;2022-07-11T12:54:48;5.80;;;1.90;;
15120;SDS011;7661;48.904;9.414;2022-07-11T12:57:19;2.90;;;1.70;;
15120;SDS011;7661;48.904;9.414;2022-07-11T12:59:47;4.23;;;1.40;;
15120;SDS011;7661;48.904;9.414;2022-07-11T13:02:15;4.53;;;1.90;;
15120;SDS011;7661;48.904;9.414;2022-07-11T13:04:44;3.70;;;1.50;;
15120;SDS011;7661;48.904;9.414;2022-07-11T13:07:22;4.33;;;2.03;;
15120;SDS011;7661;48.904;9.414;2022-07-11T13:10:11;3.50;;;2.07;;
15120;SDS011;7661;48.904;9.414;2022-07-11T13:12:40;6.30;;;1.73;;
15120;SDS011;7661;48.904;9.414;2022-07-11T13:15:07;2.00;;;1.30;;
15120;SDS011;7661;48.904;9.414;2022-07-11T13:17:35;7.87;;;1.77;;
15120;SDS011;7661;48.904;9.414;2022-07-11T13:20:03;5.87;;;1.73;;
15120;SDS011;7661;48.904;9.414;2022-07-11T13:22:33;4.93;;;1.90;;
15120;SDS011;7661;48.904;9.414;2022-07-11T13:24:59;3.50;;;1.90;;
15120;SDS011;7661;48.904;9.414;2022-07-11T13:27:26;3.30;;;1.87;;
15120;SDS011;7661;48.904;9.414;2022-07-11T13:29:54;4.03;;;1.60;;
15120;SDS011;7661;48.904;9.414;2022-07-11T13:32:21;6.50;;;1.90;;
15120;SDS011;7661;48.904;9.414;2022-07-11T13:34:48;5.53;;;2.10;;
15120;SDS011;7661;48.904;9.414;2022-07-11T13:37:15;3.20;;;1.73;;
15120;SDS011;7661;48.904;9.414;2022-07-11T13:39:43;3.13;;;1.73;;
15120;SDS011;7661;48.904;9.414;2022-07-11T13:42:10;4.63;;;2.07;;
15120;SDS011;7661;48.904;9.414;2022-07-11T13:44:37;4.60;;;2.07;;
15120;SDS011;7661;48.904;9.414;2022-07-11T13:47:04;5.00;;;1.80;;
15120;SDS011;7661;48.904;9.414;2022-07-11T13:49:30;2.77;;;1.97;;
15120;SDS011;7661;48.904;9.414;2022-07-11T13:51:57;6.13;;;2.37;;
15120;SDS011;7661;48.904;9.414;2022-07-11T13:54:24;2.50;;;1.80;;
15120;SDS011;7661;48.904;9.414;2022-07-11T13:56:52;4.90;;;2.00;;
15120;SDS011;7661;48.904;9.414;2022-07-11T13:59:19;6.70;;;2.27;;
15120;SDS011;7661;48.904;9.414;2022-07-11T14:01:46;4.93;;;2.10;;
15120;SDS011;7661;48.904;9.414;2022-07-11T14:04:13;2.87;;;1.80;;
15120;SDS011;7661;48.904;9.414;2022-07-11T14:06:40;3.97;;;2.00;;
15120;SDS011;7661;48.904;9.414;2022-07-11T14:09:07;7.60;;;2.13;;
15120;SDS011;7661;48.904;9.414;2022-07-11T14:11:34;2.73;;;1.90;;
15120;SDS011;7661;48.904;9.414;2022-07-11T14:14:02;3.23;;;1.70;;
15120;SDS011;7661;48.904;9.414;2022-07-11T14:16:29;6.30;;;2.20;;
15120;SDS011;7661;48.904;9.414;2022-07-11T14:18:56;4.40;;;2.20;;
15120;SDS011;7661;48.904;9.414;2022-07-11T14:21:25;3.50;;;2.00;;
15120;SDS011;7661;48.904;9.414;2022-07-11T14:23:53;3.20;;;1.90;;
15120;SDS011;7661;48.904;9.414;2022-07-11T14:26:20;3.20;;;1.67;;
15120;SDS011;7661;48.904;9.414;2022-07-11T14:28:47;5.07;;;1.80;;
15120;SDS011;7661;48.904;9.414;2022-07-11T14:31:16;5.23;;;1.77;;
15120;SDS011;7661;48.904;9.414;2022-07-11T14:33:44;3.47;;;2.00;;
15120;SDS011;7661;48.904;9.414;2022-07-11T14:36:10;2.67;;;1.80;;
15120;SDS011;7661;48.904;9.414;2022-07-11T14:38:37;4.93;;;1.73;;
15120;SDS011;7661;48.904;9.414;2022-07-11T14:41:05;4.10;;;2.10;;
15120;SDS011;7661;48.904;9.414;2022-07-11T14:43:31;3.23;;;1.60;;
15120;SDS011;7661;48.904;9.414;2022-07-11T14:45:58;4.43;;;2.30;;
15120;SDS011;7661;48.904;9.414;2022-07-11T14:48:26;4.03;;;1.90;;
15120;SDS011;7661;48.904;9.414;2022-07-11T14:50:54;7.57;;;1.77;;
15120;SDS011;7661;48.904;9.414;2022-07-11T14:53:21;3.70;;;1.83;;
15120;SDS011;7661;48.904;9.414;2022-07-11T14:55:50;3.77;;;2.20;;
15120;SDS011;7661;48.904;9.414;2022-07-11T14:58:17;3.10;;;1.60;;
15120;SDS011;7661;48.904;9.414;2022-07-11T15:00:44;4.63;;;1.90;;
15120;SDS011;7661;48.904;9.414;2022-07-11T15:03:11;3.20;;;1.93;;
15120;SDS011;7661;48.904;9.414;2022-07-11T15:05:57;6.43;;;1.83;;
15120;SDS011;7661;48.904;9.414;2022-07-11T15:08:25;3.77;;;1.80;;
15120;SDS011;7661;48.904;9.414;2022-07-11T15:11:09;5.90;;;1.70;;
15120;SDS011;7661;48.904;9.414;2022-07-11T15:13:54;3.33;;;2.00;;
15120;SDS011;7661;48.904;9.414;2022-07-11T15:16:21;5.17;;;2.00;;
15120;SDS011;7661;48.904;9.414;2022-07-11T15:18:47;3.50;;;1.87;;
15120;SDS011;7661;48.904;9.414;2022-07-11T15:21:16;3.53;;;2.00;;
15120;SDS011;7661;48.904;9.414;2022-07-11T15:23:42;5.93;;;1.90;;
15120;SDS011;7661;48.904;9.414;2022-07-11T15:26:09;3.73;;;1.83;;
15120;SDS011;7661;48.904;9.414;2022-07-11T15:28:36;6.43;;;2.00;;
15120;SDS011;7661;48.904;9.414;2022-07-11T15:31:03;4.90;;;2.03;;